createdAt,value
2017-12-20T00:01:35.625Z,43.75
2017-12-20T00:04:04.085Z,43.60
2017-12-20T00:06:32.445Z,39.92
2017-12-20T00:09:01.396Z,40.80
2017-12-20T00:11:29.570Z,37.08
2017-12-20T00:13:58.962Z,39.47
2017-12-20T00:16:27.335Z,45.47
2017-12-20T00:18:55.863Z,43.03
2017-12-20T00:21:25.234Z,42.53
2017-12-20T00:23:53.495Z,42.62
2017-12-20T00:26:22.055Z,42.85
2017-12-20T00:28:50.276Z,43.70
2017-12-20T00:31:19.615Z,46.00
2017-12-20T00:33:47.855Z,43.70
2017-12-20T00:36:16.115Z,44.90
2017-12-20T00:38:44.475Z,46.70
2017-12-20T00:41:12.778Z,50.28
2017-12-20T00:43:41.895Z,49.55
2017-12-20T00:46:11.055Z,49.55
2017-12-20T00:48:39.135Z,48.05
2017-12-20T00:51:07.334Z,42.35
2017-12-20T00:53:36.615Z,42.45
2017-12-20T00:56:05.615Z,41.05
2017-12-20T00:58:34.634Z,46.22
2017-12-20T01:01:03.075Z,41.67
2017-12-20T01:03:31.355Z,40.22
2017-12-20T01:05:59.517Z,41.85
2017-12-20T01:08:27.995Z,37.08
2017-12-20T01:10:56.275Z,39.25
2017-12-20T01:13:25.482Z,33.00
2017-12-20T01:15:53.715Z,31.65
2017-12-20T01:18:21.915Z,31.52
2017-12-20T01:20:50.295Z,26.50
2017-12-20T01:23:18.795Z,23.02
2017-12-20T01:25:47.975Z,23.70
2017-12-20T01:28:16.635Z,22.85
2017-12-20T01:30:45.035Z,22.42
2017-12-20T01:33:13.735Z,21.87
2017-12-20T01:35:43.236Z,23.98
2017-12-20T01:38:11.494Z,20.10
2017-12-20T01:40:39.975Z,20.55
2017-12-20T01:43:08.495Z,17.85
2017-12-20T01:45:37.875Z,19.48
2017-12-20T01:48:06.995Z,19.62
2017-12-20T01:50:35.215Z,23.70
2017-12-20T01:53:03.515Z,24.35
2017-12-20T01:55:31.795Z,22.37
2017-12-20T01:58:00.055Z,19.52
2017-12-20T02:00:28.763Z,21.87
2017-12-20T02:02:57.934Z,24.92
2017-12-20T02:05:26.235Z,26.48
2017-12-20T02:07:55.375Z,27.17
2017-12-20T02:10:23.495Z,27.45
2017-12-20T02:12:51.756Z,28.85
2017-12-20T02:15:19.955Z,28.00
2017-12-20T02:17:49.239Z,31.27
2017-12-20T02:20:17.515Z,28.17
2017-12-20T02:22:45.795Z,26.55
2017-12-20T02:25:14.175Z,30.62
2017-12-20T02:27:42.355Z,33.42
2017-12-20T02:30:11.735Z,30.80
2017-12-20T02:32:40.115Z,30.80
2017-12-20T02:35:08.496Z,29.75
2017-12-20T02:37:37.195Z,30.35
2017-12-20T02:40:06.595Z,28.33
2017-12-20T02:42:35.378Z,26.48
2017-12-20T02:45:04.606Z,30.17
2017-12-20T02:47:33.445Z,27.98
2017-12-20T02:50:01.795Z,27.17
2017-12-20T02:52:30.335Z,27.17
2017-12-20T02:54:59.596Z,24.45
2017-12-20T02:57:27.995Z,25.67
2017-12-20T02:59:56.355Z,25.88
2017-12-20T03:02:24.642Z,25.20
2017-12-20T03:04:52.794Z,23.33
2017-12-20T03:07:21.095Z,23.95
2017-12-20T03:09:50.235Z,21.50
2017-12-20T03:12:18.775Z,21.50
2017-12-20T03:14:47.235Z,21.92
2017-12-20T03:17:15.495Z,21.75
2017-12-20T03:19:43.695Z,19.40
2017-12-20T03:22:13.075Z,18.50
2017-12-20T03:24:41.375Z,24.63
2017-12-20T03:27:09.675Z,18.62
2017-12-20T03:29:38.695Z,21.70
2017-12-20T03:32:07.019Z,20.15
2017-12-20T03:34:35.196Z,19.05
2017-12-20T03:37:03.675Z,17.55
2017-12-20T03:39:31.845Z,17.48
2017-12-20T03:42:00.835Z,15.32
2017-12-20T03:44:29.415Z,17.55
2017-12-20T03:46:57.595Z,15.90
2017-12-20T03:49:25.654Z,15.15
2017-12-20T03:51:54.035Z,15.27
2017-12-20T03:54:22.995Z,16.30
2017-12-20T03:56:51.095Z,15.60
2017-12-20T03:59:19.695Z,13.27
2017-12-20T04:01:48.035Z,14.18
2017-12-20T04:04:16.475Z,14.52
2017-12-20T04:06:44.835Z,17.00
2017-12-20T04:09:13.915Z,13.80
2017-12-20T04:11:42.455Z,13.43
2017-12-20T04:14:10.935Z,16.40
2017-12-20T04:16:39.614Z,17.12
2017-12-20T04:19:08.055Z,15.40
2017-12-20T04:21:37.134Z,15.52
2017-12-20T04:24:05.515Z,15.10
2017-12-20T04:26:34.614Z,16.65
2017-12-20T04:29:03.195Z,16.87
2017-12-20T04:31:32.276Z,19.90
2017-12-20T04:34:00.735Z,16.85
2017-12-20T04:36:29.243Z,16.90
2017-12-20T04:38:57.920Z,17.62
2017-12-20T04:41:26.075Z,19.45
2017-12-20T04:43:54.655Z,19.30
2017-12-20T04:46:23.155Z,20.77
2017-12-20T04:48:51.615Z,21.92
2017-12-20T04:51:20.235Z,18.77
2017-12-20T04:53:48.355Z,20.15
2017-12-20T04:56:16.675Z,18.45
2017-12-20T04:58:44.755Z,19.98
2017-12-20T05:01:13.015Z,17.52
2017-12-20T05:03:41.202Z,20.12
2017-12-20T05:06:09.675Z,18.00
2017-12-20T05:08:37.835Z,21.20
2017-12-20T05:11:06.495Z,20.48
2017-12-20T05:13:35.115Z,22.13
2017-12-20T05:16:03.195Z,22.35
2017-12-20T05:18:31.115Z,20.48
2017-12-20T05:20:59.775Z,20.85
2017-12-20T05:23:28.235Z,23.90
2017-12-20T05:25:57.514Z,24.37
2017-12-20T05:28:26.895Z,21.23
2017-12-20T05:30:55.559Z,21.23
2017-12-20T05:33:24.070Z,27.95
2017-12-20T05:35:52.676Z,24.50
2017-12-20T05:38:21.615Z,20.75
2017-12-20T05:40:49.733Z,23.00
2017-12-20T05:43:18.994Z,22.62
2017-12-20T05:45:48.074Z,24.55
2017-12-20T05:48:16.803Z,21.17
2017-12-20T05:50:44.874Z,20.02
2017-12-20T05:53:12.940Z,20.20
2017-12-20T05:55:41.038Z,23.10
2017-12-20T05:58:10.137Z,24.27
2017-12-20T06:00:39.298Z,24.45
2017-12-20T06:03:07.779Z,25.67
2017-12-20T06:05:36.378Z,22.13
2017-12-20T06:08:05.452Z,25.00
2017-12-20T06:10:33.806Z,25.75
2017-12-20T06:13:02.164Z,23.02
2017-12-20T06:15:30.384Z,23.67
2017-12-20T06:17:58.885Z,21.30
2017-12-20T06:20:28.085Z,22.67
2017-12-20T06:22:56.965Z,25.58
2017-12-20T06:25:25.224Z,24.75
2017-12-20T06:27:53.405Z,23.33
2017-12-20T06:30:22.524Z,28.23
2017-12-20T06:32:51.385Z,22.58
2017-12-20T06:35:19.664Z,27.20
2017-12-20T06:37:47.864Z,29.73
2017-12-20T06:40:17.264Z,23.75
2017-12-20T06:42:46.685Z,27.45
2017-12-20T06:45:15.185Z,23.80
2017-12-20T06:47:43.744Z,19.75
2017-12-20T06:50:12.225Z,20.12
2017-12-20T06:52:40.671Z,19.98
2017-12-20T06:55:09.244Z,22.30
2017-12-20T06:57:38.045Z,18.92
2017-12-20T07:00:06.284Z,22.50
2017-12-20T07:02:34.772Z,21.62
2017-12-20T07:05:02.970Z,26.10
2017-12-20T07:07:31.233Z,18.83
2017-12-20T07:09:59.373Z,22.83
2017-12-20T07:12:27.693Z,23.55
2017-12-20T07:14:55.716Z,24.05
2017-12-20T07:17:24.132Z,25.20
2017-12-20T07:19:52.213Z,26.52
2017-12-20T07:22:20.473Z,26.62
2017-12-20T07:24:48.933Z,22.45
2017-12-20T07:27:17.434Z,22.02
2017-12-20T07:29:45.812Z,22.67
2017-12-20T07:32:13.993Z,24.00
2017-12-20T07:34:42.233Z,26.75
2017-12-20T07:37:10.433Z,29.65
2017-12-20T07:39:38.713Z,36.72
2017-12-20T07:42:07.314Z,37.60
2017-12-20T07:44:36.714Z,33.47
2017-12-20T07:47:06.233Z,34.65
2017-12-20T07:49:35.413Z,33.78
2017-12-20T07:52:04.612Z,38.83
2017-12-20T07:54:33.993Z,41.13
2017-12-20T07:57:02.333Z,32.50
2017-12-20T07:59:30.648Z,37.22
2017-12-20T08:01:59.128Z,50.75
2017-12-20T08:04:27.610Z,44.97
2017-12-20T08:06:55.896Z,41.40
2017-12-20T08:09:24.068Z,43.87
2017-12-20T08:11:53.148Z,39.38
2017-12-20T08:14:21.516Z,40.25
2017-12-20T08:16:49.908Z,45.00
2017-12-20T08:19:18.388Z,49.42
2017-12-20T08:21:46.567Z,44.40
2017-12-20T08:24:15.008Z,41.15
2017-12-20T08:26:43.728Z,42.10
2017-12-20T08:29:12.327Z,47.22
2017-12-20T08:31:41.609Z,41.33
2017-12-20T08:34:10.188Z,46.37
2017-12-20T08:36:38.668Z,44.08
2017-12-20T08:39:07.475Z,41.10
2017-12-20T08:41:36.750Z,43.50
2017-12-20T08:44:05.308Z,44.50
2017-12-20T08:46:33.568Z,46.30
2017-12-20T08:49:02.007Z,43.33
2017-12-20T08:51:30.268Z,42.50
2017-12-20T08:53:58.728Z,45.85
2017-12-20T08:56:27.008Z,45.53
2017-12-20T08:58:55.208Z,38.85
2017-12-20T09:01:25.307Z,41.65
2017-12-20T09:03:53.690Z,33.38
2017-12-20T09:06:21.868Z,34.97
2017-12-20T09:08:50.128Z,31.10
2017-12-20T09:11:18.304Z,33.92
2017-12-20T09:13:46.797Z,30.70
2017-12-20T09:16:15.081Z,30.50
2017-12-20T09:18:43.477Z,32.28
2017-12-20T09:21:12.438Z,31.42
2017-12-20T09:23:40.817Z,30.67
2017-12-20T09:26:09.097Z,35.35
2017-12-20T09:28:38.521Z,54.78
2017-12-20T09:31:07.617Z,36.38
2017-12-20T09:33:36.940Z,37.78
2017-12-20T09:36:05.257Z,33.28
2017-12-20T09:38:33.839Z,36.10
2017-12-20T09:41:02.021Z,38.25
2017-12-20T09:43:30.559Z,35.63
2017-12-20T09:45:58.724Z,39.35
2017-12-20T09:48:27.026Z,41.20
2017-12-20T09:50:55.446Z,45.35
2017-12-20T09:53:24.574Z,45.70
2017-12-20T09:55:52.786Z,42.40
2017-12-20T09:58:21.344Z,39.15
2017-12-20T10:00:50.059Z,36.92
2017-12-20T10:03:18.224Z,39.28
2017-12-20T10:05:46.416Z,39.45
2017-12-20T10:08:14.536Z,37.22
2017-12-20T10:10:42.977Z,33.35
2017-12-20T10:13:11.336Z,34.25
2017-12-20T10:15:39.727Z,34.78
2017-12-20T10:18:08.005Z,32.90
2017-12-20T10:20:36.283Z,27.70
2017-12-20T10:23:04.664Z,27.08
2017-12-20T10:25:34.181Z,28.55
2017-12-20T10:28:03.573Z,26.83
2017-12-20T10:30:32.853Z,31.02
2017-12-20T10:33:01.114Z,25.50
2017-12-20T10:35:29.313Z,26.42
2017-12-20T10:37:57.793Z,23.77
2017-12-20T10:40:26.201Z,23.85
2017-12-20T10:42:54.598Z,27.50
2017-12-20T10:45:22.829Z,23.98
2017-12-20T10:47:51.811Z,24.40
2017-12-20T10:50:20.063Z,28.30
2017-12-20T10:52:48.676Z,22.98
2017-12-20T10:55:17.877Z,25.60
2017-12-20T10:57:46.277Z,21.60
2017-12-20T11:00:14.918Z,24.60
2017-12-20T11:02:43.918Z,24.67
2017-12-20T11:05:12.077Z,23.92
2017-12-20T11:07:40.396Z,25.67
2017-12-20T11:10:09.356Z,24.98
2017-12-20T11:12:37.522Z,26.50
2017-12-20T11:15:05.702Z,25.73
2017-12-20T11:17:33.981Z,23.58
2017-12-20T11:20:02.683Z,30.35
2017-12-20T11:22:32.262Z,24.85
2017-12-20T11:25:00.681Z,29.98
2017-12-20T11:27:30.162Z,24.27
2017-12-20T11:29:58.602Z,28.40
2017-12-20T11:32:27.242Z,28.95
2017-12-20T11:34:56.462Z,24.50
2017-12-20T11:37:25.002Z,28.42
2017-12-20T11:39:53.542Z,27.30
2017-12-20T11:42:21.748Z,26.27
2017-12-20T11:44:49.788Z,26.73
2017-12-20T11:47:18.208Z,25.70
2017-12-20T11:49:46.689Z,25.12
2017-12-20T11:52:15.668Z,24.83
2017-12-20T11:54:45.074Z,22.90
2017-12-20T11:57:13.676Z,27.35
2017-12-20T11:59:43.055Z,26.60
2017-12-20T12:02:11.487Z,23.55
2017-12-20T12:04:40.117Z,23.87
2017-12-20T12:07:08.461Z,24.08
2017-12-20T12:09:36.981Z,25.80
2017-12-20T12:12:05.143Z,26.48
2017-12-20T12:14:34.186Z,25.60
2017-12-20T12:17:03.466Z,26.12
2017-12-20T12:19:33.145Z,25.27
2017-12-20T12:22:01.845Z,24.35
2017-12-20T12:24:29.908Z,24.75
2017-12-20T12:26:58.388Z,20.80
2017-12-20T12:29:26.767Z,27.55
2017-12-20T12:31:54.761Z,33.15
2017-12-20T12:34:23.898Z,34.95
2017-12-20T12:36:52.207Z,39.53
2017-12-20T12:39:20.582Z,35.95
2017-12-20T12:41:49.901Z,29.90
2017-12-20T12:44:19.260Z,32.70
2017-12-20T12:46:47.430Z,36.50
2017-12-20T12:49:15.811Z,28.20
2017-12-20T12:51:44.210Z,27.40
2017-12-20T12:54:12.487Z,27.87
2017-12-20T12:56:40.785Z,30.40
2017-12-20T12:59:09.850Z,29.85
2017-12-20T13:01:38.070Z,24.08
2017-12-20T13:04:06.312Z,23.40
2017-12-20T13:06:34.591Z,24.42
2017-12-20T13:09:02.841Z,23.85
2017-12-20T13:11:31.229Z,29.95
2017-12-20T13:13:59.639Z,23.38
2017-12-20T13:16:28.919Z,26.12
2017-12-20T13:18:57.097Z,25.12
2017-12-20T13:21:25.240Z,23.65
2017-12-20T13:23:53.647Z,25.45
2017-12-20T13:26:22.225Z,25.55
2017-12-20T13:28:51.365Z,21.23
2017-12-20T13:31:19.585Z,21.92
2017-12-20T13:33:47.972Z,24.35
2017-12-20T13:36:16.133Z,22.65
2017-12-20T13:38:45.208Z,21.95
2017-12-20T13:41:13.649Z,22.13
2017-12-20T13:43:41.867Z,20.62
2017-12-20T13:46:10.431Z,20.15
2017-12-20T13:48:38.958Z,21.42
2017-12-20T13:51:07.321Z,20.30
2017-12-20T13:53:35.913Z,17.80
2017-12-20T13:56:04.300Z,21.92
2017-12-20T13:58:32.672Z,20.45
2017-12-20T14:01:01.333Z,18.02
2017-12-20T14:03:29.930Z,20.85
2017-12-20T14:05:59.763Z,20.83
2017-12-20T14:08:28.737Z,20.20
2017-12-20T14:10:58.357Z,19.12
2017-12-20T14:13:27.976Z,19.27
2017-12-20T14:15:57.395Z,20.67
2017-12-20T14:18:26.102Z,19.70
2017-12-20T14:20:54.415Z,19.75
2017-12-20T14:23:22.836Z,21.12
2017-12-20T14:25:51.577Z,20.80
2017-12-20T14:28:20.116Z,28.00
2017-12-20T14:30:48.396Z,23.70
2017-12-20T14:33:16.515Z,23.45
2017-12-20T14:35:45.895Z,20.83
2017-12-20T14:38:14.255Z,21.00
2017-12-20T14:40:43.095Z,23.10
2017-12-20T14:43:12.053Z,21.08
2017-12-20T14:45:40.242Z,20.98
2017-12-20T14:48:08.582Z,22.05
2017-12-20T14:50:37.293Z,20.08
2017-12-20T14:53:05.473Z,21.83
2017-12-20T14:55:36.502Z,24.48
2017-12-20T14:58:05.818Z,24.80
2017-12-20T15:00:34.633Z,21.73
2017-12-20T15:03:04.013Z,23.02
2017-12-20T15:05:32.394Z,24.77
2017-12-20T15:08:00.874Z,23.45
2017-12-20T15:10:29.447Z,30.70
2017-12-20T15:12:57.787Z,28.92
2017-12-20T15:15:26.085Z,25.85
2017-12-20T15:17:54.671Z,25.65
2017-12-20T15:20:22.877Z,23.92
2017-12-20T15:22:51.942Z,26.52
2017-12-20T15:25:20.399Z,21.87
2017-12-20T15:27:48.784Z,23.50
2017-12-20T15:30:17.505Z,22.05
2017-12-20T15:32:46.185Z,20.77
2017-12-20T15:35:14.729Z,25.75
2017-12-20T15:37:43.389Z,22.40
2017-12-20T15:40:11.858Z,28.85
2017-12-20T15:42:40.040Z,27.42
2017-12-20T15:45:08.452Z,24.77
2017-12-20T15:47:36.972Z,21.62
2017-12-20T15:50:06.053Z,21.92
2017-12-20T15:52:34.554Z,23.80
2017-12-20T15:55:03.872Z,23.27
2017-12-20T15:57:32.494Z,21.75
2017-12-20T16:00:00.692Z,22.02
2017-12-20T16:02:29.072Z,28.05
2017-12-20T16:04:57.415Z,38.22
2017-12-20T16:07:27.392Z,37.25
2017-12-20T16:09:56.852Z,36.90
2017-12-20T16:12:25.413Z,37.58
2017-12-20T16:14:53.592Z,40.33
2017-12-20T16:17:21.932Z,33.88
2017-12-20T16:19:50.872Z,40.35
2017-12-20T16:22:19.353Z,40.78
2017-12-20T16:24:47.874Z,36.95
2017-12-20T16:27:17.033Z,37.65
2017-12-20T16:29:45.432Z,43.65
2017-12-20T16:32:14.032Z,41.00
2017-12-20T16:34:42.877Z,39.38
2017-12-20T16:37:11.235Z,43.53
2017-12-20T16:39:39.777Z,44.97
2017-12-20T16:42:08.837Z,48.63
2017-12-20T16:44:37.416Z,42.60
2017-12-20T16:47:06.015Z,35.72
2017-12-20T16:49:34.256Z,37.95
2017-12-20T16:52:02.877Z,38.53
2017-12-20T16:54:31.455Z,38.00
2017-12-20T16:56:59.836Z,41.63
2017-12-20T16:59:28.195Z,40.00
2017-12-20T17:01:56.578Z,43.63
2017-12-20T17:04:25.296Z,39.83
2017-12-20T17:06:54.677Z,37.70
2017-12-20T17:09:23.277Z,42.15
2017-12-20T17:11:52.436Z,44.65
2017-12-20T17:14:20.796Z,42.95
2017-12-20T17:16:49.216Z,44.55
2017-12-20T17:19:17.656Z,44.38
2017-12-20T17:21:46.263Z,63.30
2017-12-20T17:24:14.677Z,44.67
2017-12-20T17:26:43.636Z,42.33
2017-12-20T17:29:11.816Z,49.75
2017-12-20T17:31:42.416Z,44.95
2017-12-20T17:34:10.916Z,46.53
2017-12-20T17:36:39.416Z,52.30
2017-12-20T17:39:07.677Z,43.97
2017-12-20T17:41:35.959Z,47.62
2017-12-20T17:44:04.556Z,49.67
2017-12-20T17:46:33.715Z,47.62
2017-12-20T17:49:02.316Z,49.45
2017-12-20T17:51:31.116Z,43.20
2017-12-20T17:53:59.696Z,48.28
2017-12-20T17:56:28.856Z,49.72
2017-12-20T17:58:57.356Z,51.13
2017-12-20T18:01:25.756Z,49.72
2017-12-20T18:03:54.915Z,46.85
2017-12-20T18:06:22.997Z,44.60
2017-12-20T18:08:51.396Z,45.12
2017-12-20T18:11:20.377Z,40.70
2017-12-20T18:13:49.256Z,39.00
2017-12-20T18:16:17.657Z,38.95
2017-12-20T18:18:46.836Z,37.17
2017-12-20T18:21:15.536Z,41.37
2017-12-20T18:23:44.738Z,44.33
2017-12-20T18:26:13.216Z,46.05
2017-12-20T18:28:41.456Z,50.78
2017-12-20T18:31:09.616Z,51.47
2017-12-20T18:33:38.136Z,53.13
2017-12-20T18:36:06.416Z,50.00
2017-12-20T18:38:34.757Z,61.42
2017-12-20T18:41:02.956Z,61.37
2017-12-20T18:43:31.136Z,84.97
2017-12-20T18:45:59.396Z,48.03
2017-12-20T18:48:27.977Z,41.85
2017-12-20T18:50:56.156Z,46.20
2017-12-20T18:53:24.435Z,47.10
2017-12-20T18:55:52.977Z,44.22
2017-12-20T18:58:21.718Z,48.25
2017-12-20T19:00:50.196Z,49.97
2017-12-20T19:03:18.577Z,49.65
2017-12-20T19:05:47.796Z,54.08
2017-12-20T19:08:17.255Z,49.15
2017-12-20T19:10:45.956Z,51.42
2017-12-20T19:13:14.341Z,52.55
2017-12-20T19:15:42.717Z,53.40
2017-12-20T19:18:11.097Z,51.35
2017-12-20T19:20:39.677Z,51.13
2017-12-20T19:23:08.036Z,54.67
2017-12-20T19:25:36.256Z,52.25
2017-12-20T19:28:04.918Z,48.87
2017-12-20T19:30:34.296Z,48.50
2017-12-20T19:33:02.657Z,51.17
2017-12-20T19:35:31.377Z,51.67
2017-12-20T19:37:59.757Z,46.37
2017-12-20T19:40:28.616Z,46.95
2017-12-20T19:42:56.936Z,45.90
2017-12-20T19:45:26.236Z,46.50
2017-12-20T19:47:55.235Z,52.97
2017-12-20T19:50:24.677Z,46.50
2017-12-20T19:52:52.936Z,43.65
2017-12-20T19:55:21.356Z,48.22
2017-12-20T19:57:49.577Z,35.80
2017-12-20T20:00:17.916Z,36.45
2017-12-20T20:02:46.296Z,41.15
2017-12-20T20:05:14.877Z,33.10
2017-12-20T20:07:43.297Z,38.70
2017-12-20T20:10:11.736Z,34.72
2017-12-20T20:12:40.257Z,34.05
2017-12-20T20:15:08.996Z,35.00
2017-12-20T20:17:37.716Z,36.13
2017-12-20T20:20:07.016Z,33.13
2017-12-20T20:22:36.597Z,31.90
2017-12-20T20:25:05.118Z,34.40
2017-12-20T20:27:34.437Z,30.35
2017-12-20T20:30:03.177Z,31.83
2017-12-20T20:32:32.556Z,32.70
2017-12-20T20:35:00.936Z,33.38
2017-12-20T20:37:29.316Z,32.17
2017-12-20T20:39:58.296Z,37.15
2017-12-20T20:42:26.796Z,32.30
2017-12-20T20:44:55.177Z,32.10
2017-12-20T20:47:24.316Z,30.80
2017-12-20T20:49:52.436Z,32.10
2017-12-20T20:52:21.375Z,29.17
2017-12-20T20:54:49.516Z,32.33
2017-12-20T20:57:18.956Z,32.15
2017-12-20T20:59:47.255Z,35.63
2017-12-20T21:02:15.556Z,33.70
2017-12-20T21:04:44.157Z,32.67
2017-12-20T21:07:13.235Z,40.88
2017-12-20T21:09:41.495Z,35.67
2017-12-20T21:12:09.776Z,28.80
2017-12-20T21:14:38.035Z,36.42
2017-12-20T21:17:06.216Z,29.35
2017-12-20T21:19:34.455Z,31.60
2017-12-20T21:22:02.777Z,32.28
2017-12-20T21:24:31.276Z,30.02
2017-12-20T21:26:59.660Z,30.02
2017-12-20T21:29:28.912Z,28.17
2017-12-20T21:31:57.411Z,31.08
2017-12-20T21:34:25.592Z,27.48
2017-12-20T21:36:54.890Z,29.10
2017-12-20T21:39:24.290Z,27.92
2017-12-20T21:41:52.652Z,28.10
2017-12-20T21:44:21.151Z,34.33
2017-12-20T21:46:50.352Z,27.37
2017-12-20T21:49:19.232Z,29.48
2017-12-20T21:51:48.431Z,27.80
2017-12-20T21:54:16.710Z,26.92
2017-12-20T21:56:44.971Z,30.05
2017-12-20T21:59:13.689Z,28.73
2017-12-20T22:01:42.831Z,31.65
2017-12-20T22:04:11.411Z,27.40
2017-12-20T22:06:39.871Z,28.50
2017-12-20T22:09:08.591Z,29.17
2017-12-20T22:11:36.990Z,27.62
2017-12-20T22:14:06.310Z,27.80
2017-12-20T22:16:35.591Z,20.65
2017-12-20T22:19:04.771Z,27.37
2017-12-20T22:21:33.411Z,28.62
2017-12-20T22:24:01.951Z,25.70
2017-12-20T22:26:30.331Z,27.37
2017-12-20T22:28:58.913Z,28.52
2017-12-20T22:31:27.993Z,24.52
2017-12-20T22:33:56.250Z,28.95
2017-12-20T22:36:24.651Z,29.83
2017-12-20T22:38:53.210Z,22.10
2017-12-20T22:41:21.590Z,28.40
2017-12-20T22:43:49.890Z,30.25
2017-12-20T22:46:18.371Z,28.17
2017-12-20T22:48:46.790Z,25.70
2017-12-20T22:51:14.791Z,28.20
2017-12-20T22:53:42.972Z,28.17
2017-12-20T22:56:11.474Z,26.90
2017-12-20T22:58:39.851Z,27.80
2017-12-20T23:01:08.130Z,26.80
2017-12-20T23:03:36.210Z,26.95
2017-12-20T23:06:05.291Z,23.80
2017-12-20T23:08:33.591Z,27.37
2017-12-20T23:11:02.590Z,23.70
2017-12-20T23:13:31.651Z,24.40
2017-12-20T23:16:00.130Z,27.23
2017-12-20T23:18:28.731Z,24.55
2017-12-20T23:20:58.031Z,29.08
2017-12-20T23:23:27.970Z,24.80
2017-12-20T23:25:56.370Z,25.30
2017-12-20T23:28:25.110Z,26.12
2017-12-20T23:30:54.511Z,24.83
2017-12-20T23:33:24.871Z,24.42
2017-12-20T23:35:53.531Z,28.42
2017-12-20T23:38:23.410Z,25.50
2017-12-20T23:40:51.910Z,25.85
2017-12-20T23:43:21.297Z,25.15
2017-12-20T23:45:49.691Z,24.92
2017-12-20T23:48:19.031Z,30.98
2017-12-20T23:50:47.350Z,24.42
2017-12-20T23:53:15.547Z,26.42
2017-12-20T23:55:44.626Z,23.30
2017-12-20T23:58:12.886Z,25.95
